Welcome to the updated website with new and more accurate equipment. Established 2007


Active alerts


No alerts

Mount Mesnard more information Mount Mesnard


Lower Harbor more information Lower Harbor


Visit our other weather sites:

Template documentation
and downloads

And another site


Nearby METAR Reports

   
KSAW - Sawyer, Michigan
Updated: 28-04-2017 10:45
Light Snow, Overcast  
Light Snow, Overcast  
   Wind: WSW 16.1 mph<br />Gust to 16.1 mph
Wind: WSW 16.1 mph
Gust to 16.1 mph
Temperature: 32°F
Wind Chill: 21.2°F
Dew Point: 26.6°F
Humidity: 80%
Barometer: 29.79 inHg
Clouds: Overcast
Visibility: 10 mi
Cloud details: Overcast 762 m
KSAW 281445Z 25014G18KT 10SM -SN OVC025 00/M03 A2979
KESC - Escanaba, Michigan
Updated: 28-04-2017 10:56
Overcast  
Overcast  
   Wind: SW 13.8 mph<br />Gust to 13.8 mph
Wind: SW 13.8 mph
Gust to 13.8 mph
Temperature: 35.6°F
Wind Chill: 26.6°F
Dew Point: 26.6°F
Humidity: 70%
Barometer: 29.85 inHg
Clouds: Overcast
Visibility: 10 mi
Cloud details: Overcast 1250 m
KESC 281456Z AUTO 22012G22KT 10SM OVC041 02/M03 A2985 RMK AO2 SLP133 T00221028 51011 FZRANO
KIMT - Iron Mountain, MI
Updated: 28-04-2017 11:16
Overcast  
Overcast  
   Wind: WNW 11.5 mph<br />Gust to 11.5 mph
Wind: WNW 11.5 mph
Gust to 11.5 mph
Temperature: 35.6°F
Wind Chill: 28.4°F
Dew Point: 24.8°F
Humidity: 65%
Barometer: 29.81 inHg
Clouds: Overcast
Visibility: 10 mi
Cloud details: Partly Cloudy 671 m,
Overcast 1006 m
KIMT 281516Z AUTO 29010G15KT 10SM SCT022 OVC033 02/M04 A2981 RMK AO2 T00221044
KGRB - Green Bay, WI
Updated: 28-04-2017 11:12
Overcast  
Overcast  
   Wind: SW 10.4 mph
Wind: SW 10.4 mph
Temperature: 39.2°F
Wind Chill: 32°F
Dew Point: 30.2°F
Humidity: 70%
Barometer: 29.92 inHg
Clouds: Overcast
Visibility: 10 mi
Cloud details: Overcast 1036 m
KGRB 281512Z 22009KT 10SM OVC034 04/M01 A2992 RMK AO2 T00441011
KDET - Detroit, MI
Updated: 28-04-2017 10:53
Clear  
Clear  
   Wind: SSW 10.4 mph
Wind: SSW 10.4 mph
Temperature: 57.2°F
Dew Point: 42.8°F
Humidity: 59%
Barometer: 30 inHg
Clouds: Clear
Visibility: 10 mi
Cloud details: Clear
KDET 281453Z 21009KT 10SM CLR 14/06 A3000 RMK AO2 SLP161 T01390056 50016
 

Script developed by  Saratoga-weather.org Adapted for the template by  Weerstation Leuven

You find our weather info also at:

Weather Underground

Midwestern Weather Network

WeatherlinkIP

Citizen Weather Observer Program (CWOP)

Equipment we use:

Weather-station
Davis VP2

Weather-program
Davis Weatherlink.Com

Davis VP2

Davis Weatherlink.Com